Time;durP1;ratioP1;P1;durP2;ratioP2;P2;SDS_P1;SDS_P2;PMS_P1;PMS_P2;Temp;Humidity;BMP_temperature;BMP_pressure;BME280_temperature;BME280_humidity;BME280_pressure;Samples;Min_cycle;Max_cycle;Signal;HPM_P1;HPM_P2
2021/07/10 00:02:06;;;;;;;8.63;3.80;;;;;;;;;;5025525;28;20033;-74
2021/07/10 00:04:33;;;;;;;11.82;4.00;;;;;;;;;;5025183;28;20521;-73
2021/07/10 00:06:59;;;;;;;10.65;4.18;;;;;;;;;;5026834;28;20029;-74
2021/07/10 00:09:26;;;;;;;11.27;3.55;;;;;;;;;;5026865;28;20036;-74
2021/07/10 00:11:52;;;;;;;8.68;4.03;;;;;;;;;;5026345;28;20091;-75
2021/07/10 00:14:19;;;;;;;9.90;4.47;;;;;;;;;;5026385;28;20100;-74
2021/07/10 00:16:45;;;;;;;8.45;3.45;;;;;;;;;;5024894;28;20410;-75
2021/07/10 00:19:12;;;;;;;10.88;3.95;;;;;;;;;;5026446;28;20036;-73
2021/07/10 00:21:38;;;;;;;9.82;4.00;;;;;;;;;;5026561;28;20051;-74
2021/07/10 00:24:05;;;;;;;11.55;4.13;;;;;;;;;;5026414;28;20095;-73
2021/07/10 00:26:32;;;;;;;9.57;3.70;;;;;;;;;;5026283;28;20024;-77
2021/07/10 00:28:58;;;;;;;11.18;3.70;;;;;;;;;;5021235;28;20029;-76
2021/07/10 00:31:24;;;;;;;10.82;3.63;;;;;;;;;;5026514;28;20098;-74
2021/07/10 00:33:50;;;;;;;10.85;4.32;;;;;;;;;;5026251;28;20028;-76
2021/07/10 00:36:17;;;;;;;15.18;5.00;;;;;;;;;;5024378;28;20084;-74
2021/07/10 00:38:43;;;;;;;12.82;4.10;;;;;;;;;;5026208;28;20033;-74
2021/07/10 00:41:09;;;;;;;9.20;3.78;;;;;;;;;;5025663;28;20032;-74
2021/07/10 00:43:35;;;;;;;18.30;4.57;;;;;;;;;;5026361;28;20029;-73
2021/07/10 00:46:02;;;;;;;12.98;4.22;;;;;;;;;;5024671;28;20021;-75
2021/07/10 00:48:29;;;;;;;9.85;4.82;;;;;;;;;;5026103;28;20522;-74
2021/07/10 00:50:55;;;;;;;11.13;4.22;;;;;;;;;;5025847;28;20033;-74
2021/07/10 00:53:21;;;;;;;11.25;4.47;;;;;;;;;;5021079;28;20018;-73
2021/07/10 00:55:47;;;;;;;14.07;4.65;;;;;;;;;;5023457;28;20030;-74
2021/07/10 00:58:14;;;;;;;14.30;5.03;;;;;;;;;;5023523;28;20033;-74
2021/07/10 01:00:41;;;;;;;13.30;4.80;;;;;;;;;;5026051;28;20389;-76
2021/07/10 01:03:09;;;;;;;11.57;5.28;;;;;;;;;;5025832;28;20060;-75
2021/07/10 01:05:37;;;;;;;14.48;4.80;;;;;;;;;;5026026;28;20032;-74
2021/07/10 01:08:04;;;;;;;10.02;3.90;;;;;;;;;;5024384;28;20029;-74
2021/07/10 01:10:30;;;;;;;12.77;4.45;;;;;;;;;;5025934;28;20041;-74
2021/07/10 01:12:56;;;;;;;15.48;4.50;;;;;;;;;;5025990;28;20653;-74
2021/07/10 01:15:24;;;;;;;11.00;4.13;;;;;;;;;;5025578;28;20465;-74
2021/07/10 01:17:50;;;;;;;11.25;4.85;;;;;;;;;;5025731;28;20024;-74
2021/07/10 01:20:18;;;;;;;9.95;4.15;;;;;;;;;;5025741;28;20509;-74
2021/07/10 01:22:44;;;;;;;11.93;4.55;;;;;;;;;;5016852;28;20040;-74
2021/07/10 01:25:12;;;;;;;12.23;5.20;;;;;;;;;;5025866;28;20436;-74
2021/07/10 01:27:39;;;;;;;8.63;4.25;;;;;;;;;;5025508;28;20026;-73
2021/07/10 01:30:07;;;;;;;14.38;4.45;;;;;;;;;;5025416;28;20109;-74
2021/07/10 01:32:33;;;;;;;13.38;4.78;;;;;;;;;;5021652;28;20029;-74
2021/07/10 01:34:59;;;;;;;10.80;4.38;;;;;;;;;;5021592;28;20029;-73
2021/07/10 01:37:26;;;;;;;10.70;3.67;;;;;;;;;;5022989;28;20555;-75
2021/07/10 01:39:52;;;;;;;12.27;3.90;;;;;;;;;;5023387;28;20474;-74
2021/07/10 01:42:19;;;;;;;13.75;4.20;;;;;;;;;;5023115;28;20026;-73
2021/07/10 01:44:46;;;;;;;9.65;3.85;;;;;;;;;;5022870;28;20021;-74
2021/07/10 01:47:12;;;;;;;8.63;3.95;;;;;;;;;;5022767;28;20018;-74
2021/07/10 01:49:38;;;;;;;10.52;3.55;;;;;;;;;;5021517;28;20021;-74
2021/07/10 01:52:05;;;;;;;8.63;4.15;;;;;;;;;;5024510;28;20838;-74
2021/07/10 01:54:31;;;;;;;11.95;4.53;;;;;;;;;;5026481;28;20533;-74
2021/07/10 01:56:57;;;;;;;8.50;3.90;;;;;;;;;;5025039;28;20030;-73
2021/07/10 01:59:23;;;;;;;6.25;3.80;;;;;;;;;;5026776;28;20025;-73
2021/07/10 02:01:50;;;;;;;9.02;3.83;;;;;;;;;;5026468;28;20033;-75
2021/07/10 02:04:18;;;;;;;9.50;4.20;;;;;;;;;;5027031;28;20063;-74
2021/07/10 02:06:45;;;;;;;9.13;4.20;;;;;;;;;;5024837;28;20120;-74
2021/07/10 02:09:11;;;;;;;9.68;3.65;;;;;;;;;;5026456;28;20021;-73
2021/07/10 02:11:38;;;;;;;9.02;3.70;;;;;;;;;;5026246;28;20029;-74
2021/07/10 02:14:04;;;;;;;12.18;4.03;;;;;;;;;;5025173;28;20023;-74
2021/07/10 02:16:31;;;;;;;8.77;3.10;;;;;;;;;;5025952;28;20052;-76
2021/07/10 02:19:00;;;;;;;6.78;3.38;;;;;;;;;;5018841;28;20289;-74
2021/07/10 02:21:26;;;;;;;7.80;2.38;;;;;;;;;;5026492;28;20520;-74
2021/07/10 02:23:52;;;;;;;7.30;2.50;;;;;;;;;;5026534;28;20709;-74
2021/07/10 02:26:19;;;;;;;5.05;2.08;;;;;;;;;;5026409;28;20480;-74
2021/07/10 02:28:45;;;;;;;5.65;2.00;;;;;;;;;;5024058;28;20083;-73
2021/07/10 02:31:12;;;;;;;5.50;2.35;;;;;;;;;;5026729;28;20533;-72
2021/07/10 02:33:39;;;;;;;4.07;2.08;;;;;;;;;;5025408;28;20136;-73
2021/07/10 02:36:05;;;;;;;4.90;2.22;;;;;;;;;;5026050;28;20584;-74
2021/07/10 02:38:31;;;;;;;7.82;2.05;;;;;;;;;;5024591;28;20033;-73
2021/07/10 02:40:57;;;;;;;6.05;1.92;;;;;;;;;;5025823;28;20027;-75
2021/07/10 02:43:23;;;;;;;8.13;2.30;;;;;;;;;;5025832;28;20031;-74
2021/07/10 02:45:50;;;;;;;5.20;1.90;;;;;;;;;;5025665;28;20035;-73
2021/07/10 02:48:16;;;;;;;8.50;2.05;;;;;;;;;;5025906;28;20108;-74
2021/07/10 02:50:42;;;;;;;4.20;2.10;;;;;;;;;;5025298;28;20033;-74
2021/07/10 02:53:09;;;;;;;7.13;1.95;;;;;;;;;;5024376;28;20022;-75
2021/07/10 02:55:36;;;;;;;11.35;2.75;;;;;;;;;;5025823;28;20126;-74
2021/07/10 02:58:02;;;;;;;4.80;1.67;;;;;;;;;;5025134;28;20532;-75
2021/07/10 03:00:29;;;;;;;4.60;1.92;;;;;;;;;;5023747;28;20032;-73
2021/07/10 03:02:56;;;;;;;3.45;1.52;;;;;;;;;;5016510;28;20030;-74
2021/07/10 03:05:22;;;;;;;5.82;1.60;;;;;;;;;;5022717;28;20044;-74
2021/07/10 03:07:49;;;;;;;5.30;1.50;;;;;;;;;;5012104;28;20101;-76
2021/07/10 03:10:17;;;;;;;5.07;1.92;;;;;;;;;;5022565;28;20046;-73
2021/07/10 03:12:43;;;;;;;4.53;1.40;;;;;;;;;;5023097;28;20473;-74
2021/07/10 03:15:10;;;;;;;7.32;1.95;;;;;;;;;;5022477;28;20045;-73
2021/07/10 03:17:37;;;;;;;4.55;2.28;;;;;;;;;;5021088;28;20044;-73
2021/07/10 03:20:06;;;;;;;4.22;1.77;;;;;;;;;;5022105;28;20157;-73
2021/07/10 03:22:33;;;;;;;4.47;1.70;;;;;;;;;;5022636;28;20549;-73
2021/07/10 03:25:00;;;;;;;4.43;1.58;;;;;;;;;;5022485;28;20117;-74
2021/07/10 03:27:26;;;;;;;7.28;1.90;;;;;;;;;;5021011;28;20021;-73
2021/07/10 03:29:52;;;;;;;5.82;2.13;;;;;;;;;;5021486;28;20036;-73
2021/07/10 03:32:18;;;;;;;4.05;2.05;;;;;;;;;;5022657;28;20034;-73
2021/07/10 03:34:44;;;;;;;6.10;2.33;;;;;;;;;;5022570;28;20037;-73
2021/07/10 03:37:10;;;;;;;7.22;1.98;;;;;;;;;;5021692;28;20036;-73
2021/07/10 03:39:37;;;;;;;7.70;2.08;;;;;;;;;;5022461;28;20496;-74
2021/07/10 03:42:03;;;;;;;4.80;1.77;;;;;;;;;;5020113;28;20080;-74
2021/07/10 03:44:29;;;;;;;5.57;1.95;;;;;;;;;;5022464;28;20025;-73
2021/07/10 03:46:55;;;;;;;4.65;1.65;;;;;;;;;;5021434;28;20030;-74
2021/07/10 03:49:22;;;;;;;11.13;2.53;;;;;;;;;;5022489;28;20037;-73
2021/07/10 03:51:48;;;;;;;11.43;2.88;;;;;;;;;;5021914;28;20489;-74
2021/07/10 03:54:14;;;;;;;7.97;1.65;;;;;;;;;;5020063;28;20018;-74
2021/07/10 03:56:40;;;;;;;82.97;5.85;;;;;;;;;;5022085;28;20638;-73
2021/07/10 03:59:06;;;;;;;97.03;8.73;;;;;;;;;;5021284;28;20029;-74
2021/07/10 04:01:33;;;;;;;45.25;3.47;;;;;;;;;;5021515;28;20079;-73
2021/07/10 04:04:00;;;;;;;11.27;2.20;;;;;;;;;;5022120;28;20097;-74
2021/07/10 04:06:26;;;;;;;10.18;1.95;;;;;;;;;;5021404;28;21024;-73
2021/07/10 04:08:52;;;;;;;7.38;2.58;;;;;;;;;;5020221;28;20052;-73
2021/07/10 04:11:19;;;;;;;8.20;2.00;;;;;;;;;;5020936;28;20033;-74
2021/07/10 04:13:45;;;;;;;5.93;1.83;;;;;;;;;;5021631;28;20109;-73
2021/07/10 04:16:11;;;;;;;3.13;1.58;;;;;;;;;;5020908;28;20116;-74
2021/07/10 04:18:37;;;;;;;5.53;1.90;;;;;;;;;;5021110;28;20025;-73
2021/07/10 04:21:04;;;;;;;7.93;1.80;;;;;;;;;;5019925;28;20032;-73
2021/07/10 04:23:30;;;;;;;5.50;2.20;;;;;;;;;;5021185;28;20033;-73
2021/07/10 04:25:57;;;;;;;13.45;2.45;;;;;;;;;;5021637;28;20113;-74
2021/07/10 04:28:23;;;;;;;7.50;1.80;;;;;;;;;;5017251;28;20028;-74
2021/07/10 04:30:49;;;;;;;6.80;2.50;;;;;;;;;;5020525;28;20099;-73
2021/07/10 04:33:16;;;;;;;4.30;1.52;;;;;;;;;;5020063;28;20358;-73
2021/07/10 04:35:42;;;;;;;8.25;2.35;;;;;;;;;;5020369;28;20092;-73
2021/07/10 04:38:08;;;;;;;7.72;2.58;;;;;;;;;;5020952;28;20029;-73
2021/07/10 04:40:34;;;;;;;5.72;1.80;;;;;;;;;;5021172;28;20060;-73
2021/07/10 04:43:00;;;;;;;9.05;2.80;;;;;;;;;;5020361;28;20091;-73
2021/07/10 04:45:28;;;;;;;7.85;2.35;;;;;;;;;;5021574;28;20039;-73
2021/07/10 04:47:54;;;;;;;3.55;1.73;;;;;;;;;;5019000;28;20112;-74
2021/07/10 04:50:23;;;;;;;9.45;2.30;;;;;;;;;;5021358;28;20606;-74
2021/07/10 04:52:49;;;;;;;4.63;2.00;;;;;;;;;;5021267;28;20029;-74
2021/07/10 04:55:16;;;;;;;6.30;2.03;;;;;;;;;;5020236;28;20048;-74
2021/07/10 04:57:43;;;;;;;5.72;2.13;;;;;;;;;;5019720;28;20025;-74
2021/07/10 05:00:10;;;;;;;8.45;2.75;;;;;;;;;;5020209;28;20029;-73
2021/07/10 05:02:36;;;;;;;7.72;2.28;;;;;;;;;;5020577;28;20033;-74
2021/07/10 05:05:03;;;;;;;7.25;2.80;;;;;;;;;;5021185;28;20030;-73
2021/07/10 05:07:29;;;;;;;8.68;2.47;;;;;;;;;;5019258;28;20040;-73
2021/07/10 05:09:56;;;;;;;9.68;3.60;;;;;;;;;;5020263;28;20048;-73
2021/07/10 05:12:22;;;;;;;6.55;2.90;;;;;;;;;;5020273;28;20090;-74
2021/07/10 05:14:52;;;;;;;11.85;4.10;;;;;;;;;;5020970;28;20022;-72
2021/07/10 05:17:19;;;;;;;6.40;2.75;;;;;;;;;;5020382;28;20257;-74
2021/07/10 05:19:45;;;;;;;6.05;3.10;;;;;;;;;;5019325;28;20385;-74
2021/07/10 05:22:12;;;;;;;8.20;4.35;;;;;;;;;;5020756;28;20029;-73
2021/07/10 05:24:38;;;;;;;10.15;3.55;;;;;;;;;;5018421;28;20030;-73
2021/07/10 05:27:04;;;;;;;13.98;5.05;;;;;;;;;;5021855;28;20087;-73
2021/07/10 05:29:31;;;;;;;13.52;4.50;;;;;;;;;;5024149;28;20029;-73
2021/07/10 05:31:57;;;;;;;6.47;2.80;;;;;;;;;;5017117;28;20043;-73
2021/07/10 05:34:23;;;;;;;14.00;4.30;;;;;;;;;;5024970;28;20600;-73
2021/07/10 05:36:49;;;;;;;12.80;4.80;;;;;;;;;;5022463;28;20365;-73
2021/07/10 05:39:15;;;;;;;13.25;5.15;;;;;;;;;;5023331;28;20030;-73
2021/07/10 05:41:41;;;;;;;6.60;3.85;;;;;;;;;;5024491;28;20021;-73
2021/07/10 05:44:08;;;;;;;8.32;4.00;;;;;;;;;;5024447;28;20554;-74
2021/07/10 05:46:34;;;;;;;7.63;3.40;;;;;;;;;;5022572;28;20405;-73
2021/07/10 05:49:00;;;;;;;6.72;3.00;;;;;;;;;;5024173;28;20021;-73
2021/07/10 05:51:26;;;;;;;7.75;2.75;;;;;;;;;;5025270;28;20037;-73
2021/07/10 05:53:53;;;;;;;7.05;2.65;;;;;;;;;;5025045;28;20032;-73
2021/07/10 05:56:19;;;;;;;5.03;1.88;;;;;;;;;;5025253;28;20029;-74
2021/07/10 05:58:45;;;;;;;5.43;2.08;;;;;;;;;;5024889;28;20403;-73
2021/07/10 06:01:12;;;;;;;6.78;2.15;;;;;;;;;;5025329;28;20037;-73
2021/07/10 06:03:38;;;;;;;4.72;2.13;;;;;;;;;;5023884;28;20033;-73
2021/07/10 06:06:04;;;;;;;4.90;2.03;;;;;;;;;;5025258;28;20032;-73
2021/07/10 06:08:30;;;;;;;40.15;4.63;;;;;;;;;;5024721;28;20540;-73
2021/07/10 06:10:56;;;;;;;5.60;1.98;;;;;;;;;;5024654;28;20034;-73
2021/07/10 06:13:22;;;;;;;4.07;2.13;;;;;;;;;;5023387;28;20053;-73
2021/07/10 06:15:49;;;;;;;4.18;1.70;;;;;;;;;;5024910;28;20053;-72
2021/07/10 06:18:15;;;;;;;3.70;1.70;;;;;;;;;;5024813;28;20013;-73
2021/07/10 06:20:41;;;;;;;5.63;2.10;;;;;;;;;;5023079;28;20760;-72
2021/07/10 06:23:08;;;;;;;6.10;2.33;;;;;;;;;;5024509;28;20033;-73
2021/07/10 06:25:35;;;;;;;5.32;1.95;;;;;;;;;;5024455;28;20464;-72
2021/07/10 06:28:01;;;;;;;5.78;1.92;;;;;;;;;;5023327;28;20430;-72
2021/07/10 06:30:28;;;;;;;5.10;2.10;;;;;;;;;;5022932;28;20482;-73
2021/07/10 06:32:54;;;;;;;7.18;1.77;;;;;;;;;;5019686;28;20025;-73
2021/07/10 06:35:20;;;;;;;5.85;2.13;;;;;;;;;;5016544;28;20053;-74
2021/07/10 06:37:46;;;;;;;5.35;1.83;;;;;;;;;;5023310;28;20107;-73
2021/07/10 06:40:14;;;;;;;4.78;1.73;;;;;;;;;;5022171;28;20032;-73
2021/07/10 06:42:40;;;;;;;5.63;2.38;;;;;;;;;;5021784;28;20650;-74
2021/07/10 06:45:07;;;;;;;4.13;2.08;;;;;;;;;;5023034;28;20032;-73
2021/07/10 06:47:34;;;;;;;4.05;1.85;;;;;;;;;;5023078;28;20393;-74
2021/07/10 06:50:00;;;;;;;6.80;2.10;;;;;;;;;;5019431;28;20029;-73
2021/07/10 06:52:27;;;;;;;6.15;1.98;;;;;;;;;;5023411;28;20029;-73
2021/07/10 06:54:53;;;;;;;3.72;1.80;;;;;;;;;;5021253;28;20030;-73
2021/07/10 06:57:19;;;;;;;7.13;2.08;;;;;;;;;;5022940;28;20485;-74
2021/07/10 06:59:45;;;;;;;6.28;1.83;;;;;;;;;;5022641;28;20037;-75
2021/07/10 07:02:12;;;;;;;6.22;2.00;;;;;;;;;;5022696;28;20105;-73
2021/07/10 07:04:39;;;;;;;5.20;1.90;;;;;;;;;;5021427;28;20037;-73
2021/07/10 07:07:05;;;;;;;10.18;1.90;;;;;;;;;;5020346;28;20100;-72
2021/07/10 07:09:31;;;;;;;3.97;1.88;;;;;;;;;;5023679;28;20021;-73
2021/07/10 07:11:58;;;;;;;4.30;1.85;;;;;;;;;;5024279;28;20044;-72
2021/07/10 07:14:24;;;;;;;6.75;2.28;;;;;;;;;;5022529;28;20787;-72
2021/07/10 07:16:50;;;;;;;4.07;2.03;;;;;;;;;;5023978;28;20053;-72
2021/07/10 07:19:16;;;;;;;4.10;1.95;;;;;;;;;;5023622;28;20034;-72
2021/07/10 07:21:43;;;;;;;4.97;1.67;;;;;;;;;;5024005;28;20488;-72
2021/07/10 07:24:09;;;;;;;1.75;1.50;;;;;;;;;;5023704;28;20112;-72
2021/07/10 07:26:36;;;;;;;7.03;1.83;;;;;;;;;;5022036;28;20465;-72
2021/07/10 07:29:03;;;;;;;6.72;2.05;;;;;;;;;;5023492;28;20064;-73
2021/07/10 07:31:29;;;;;;;6.65;1.60;;;;;;;;;;5023103;28;20037;-72
2021/07/10 07:33:55;;;;;;;3.22;1.52;;;;;;;;;;5021832;28;20117;-73
2021/07/10 07:36:21;;;;;;;2.53;1.42;;;;;;;;;;5018563;28;20025;-73
2021/07/10 07:38:47;;;;;;;3.15;1.50;;;;;;;;;;5021027;28;20032;-72
2021/07/10 07:41:13;;;;;;;2.40;1.15;;;;;;;;;;5019892;28;20033;-75
2021/07/10 07:43:40;;;;;;;2.40;1.30;;;;;;;;;;5021533;28;20837;-74
2021/07/10 07:46:06;;;;;;;2.92;1.60;;;;;;;;;;5021726;28;20591;-68
2021/07/10 07:48:32;;;;;;;2.58;1.15;;;;;;;;;;5020144;28;20105;-68
2021/07/10 07:51:01;;;;;;;2.38;1.38;;;;;;;;;;5020749;28;20401;-71
2021/07/10 07:53:28;;;;;;;2.30;1.27;;;;;;;;;;5021915;28;20119;-69
2021/07/10 07:55:55;;;;;;;2.75;1.55;;;;;;;;;;5020750;28;20042;-73
2021/07/10 07:58:21;;;;;;;2.00;1.40;;;;;;;;;;5019395;28;20523;-72
2021/07/10 08:00:48;;;;;;;2.80;1.23;;;;;;;;;;5020612;28;20158;-74
2021/07/10 08:03:14;;;;;;;3.75;1.58;;;;;;;;;;5021066;28;20036;-74
2021/07/10 08:05:40;;;;;;;6.43;1.92;;;;;;;;;;5020339;28;20053;-72
2021/07/10 08:08:07;;;;;;;5.60;1.40;;;;;;;;;;5020816;28;20175;-73
2021/07/10 08:10:33;;;;;;;4.10;1.63;;;;;;;;;;5019852;28;20069;-72
2021/07/10 08:12:59;;;;;;;3.78;1.35;;;;;;;;;;5019134;28;20128;-73
2021/07/10 08:15:25;;;;;;;2.03;1.27;;;;;;;;;;5020448;28;20137;-72
2021/07/10 08:17:52;;;;;;;2.33;1.02;;;;;;;;;;5019587;28;20021;-73
2021/07/10 08:20:21;;;;;;;4.03;1.30;;;;;;;;;;5021658;28;20040;-73
2021/07/10 08:22:47;;;;;;;4.05;1.15;;;;;;;;;;5022355;28;20025;-72
2021/07/10 08:25:14;;;;;;;4.65;1.30;;;;;;;;;;5022439;28;20032;-73
2021/07/10 08:27:41;;;;;;;3.63;1.17;;;;;;;;;;5020440;28;20123;-73
2021/07/10 08:30:08;;;;;;;1.63;1.15;;;;;;;;;;5021296;28;20029;-73
2021/07/10 08:32:34;;;;;;;3.90;1.05;;;;;;;;;;5019931;28;20049;-73
2021/07/10 08:35:00;;;;;;;2.53;1.20;;;;;;;;;;5021537;28;20014;-73
2021/07/10 08:37:26;;;;;;;2.47;1.08;;;;;;;;;;5021913;28;20108;-73
2021/07/10 08:39:53;;;;;;;4.07;1.00;;;;;;;;;;5019657;28;20030;-73
2021/07/10 08:42:20;;;;;;;2.92;1.25;;;;;;;;;;5019703;28;20060;-73
2021/07/10 08:44:50;;;;;;;4.88;2.00;;;;;;;;;;5020747;28;20021;-73
2021/07/10 08:47:17;;;;;;;5.63;1.58;;;;;;;;;;5021452;28;20017;-71
2021/07/10 08:49:44;;;;;;;3.28;1.95;;;;;;;;;;5021522;28;20467;-71
2021/07/10 08:52:10;;;;;;;7.68;2.20;;;;;;;;;;5019237;28;20090;-72
2021/07/10 08:54:37;;;;;;;3.72;1.65;;;;;;;;;;5021283;28;20057;-73
2021/07/10 08:57:03;;;;;;;5.93;2.30;;;;;;;;;;5021015;28;20053;-72
2021/07/10 08:59:30;;;;;;;6.13;1.83;;;;;;;;;;5020692;28;20025;-72
2021/07/10 09:01:56;;;;;;;5.13;1.55;;;;;;;;;;5020404;28;20521;-72
2021/07/10 09:04:23;;;;;;;5.07;1.77;;;;;;;;;;5019938;28;20074;-72
2021/07/10 09:06:50;;;;;;;5.25;1.95;;;;;;;;;;5021411;28;20036;-73
2021/07/10 09:09:16;;;;;;;5.90;1.92;;;;;;;;;;5021209;28;20117;-73
2021/07/10 09:11:58;;;;;;;5.78;1.60;;;;;;;;;;5020295;28;20029;-72
2021/07/10 09:14:31;;;;;;;3.47;1.85;;;;;;;;;;5019227;28;20054;-73
2021/07/10 09:17:14;;;;;;;5.00;2.20;;;;;;;;;;5020716;28;20029;-72
2021/07/10 09:19:40;;;;;;;6.50;1.90;;;;;;;;;;5020090;28;20033;-72
2021/07/10 09:22:06;;;;;;;9.48;1.90;;;;;;;;;;5020507;28;20787;-72
2021/07/10 09:24:34;;;;;;;7.25;1.92;;;;;;;;;;5022118;28;20029;-73
2021/07/10 09:27:04;;;;;;;3.85;1.95;;;;;;;;;;5026230;28;20036;-72
2021/07/10 09:29:31;;;;;;;1.40;1.30;;;;;;;;;;5027177;28;20033;-73
2021/07/10 09:31:57;;;;;;;5.70;1.70;;;;;;;;;;5024467;28;20405;-72
2021/07/10 09:34:28;;;;;;;3.83;1.40;;;;;;;;;;5022065;28;20354;-70
2021/07/10 09:36:54;;;;;;;;;;;;;;;;;;5021984;28;20474;-71
2021/07/10 09:39:21;;;;;;;7.32;1.80;;;;;;;;;;5014701;28;20377;-72
2021/07/10 09:41:48;;;;;;;5.45;1.85;;;;;;;;;;5019107;28;20233;-71
2021/07/10 09:44:16;;;;;;;4.57;1.50;;;;;;;;;;5019789;28;20033;-71
2021/07/10 09:46:42;;;;;;;3.70;1.98;;;;;;;;;;5019525;28;20057;-71
2021/07/10 09:49:21;;;;;;;5.15;1.85;;;;;;;;;;5018438;28;20083;-72
2021/07/10 09:51:47;;;;;;;10.90;2.38;;;;;;;;;;5018938;28;20055;-71
2021/07/10 09:54:14;;;;;;;3.88;1.50;;;;;;;;;;5020097;28;20101;-71
2021/07/10 09:56:59;;;;;;;4.47;1.73;;;;;;;;;;5019232;28;20033;-72
2021/07/10 09:59:25;;;;;;;5.18;1.75;;;;;;;;;;5020217;28;20017;-72
2021/07/10 10:01:52;;;;;;;5.20;1.70;;;;;;;;;;5018445;28;20109;-72
2021/07/10 10:04:25;;;;;;;5.88;1.65;;;;;;;;;;5020120;28;20026;-73
2021/07/10 10:06:52;;;;;;;5.95;1.45;;;;;;;;;;5018025;28;20033;-72
2021/07/10 10:09:21;;;;;;;7.45;2.00;;;;;;;;;;5019699;28;20025;-74
2021/07/10 10:11:51;;;;;;;4.53;1.90;;;;;;;;;;5019034;28;20038;-70
2021/07/10 10:14:18;;;;;;;98.15;10.63;;;;;;;;;;5023040;28;20100;-74
2021/07/10 10:16:48;;;;;;;7.05;2.08;;;;;;;;;;5021470;28;20119;-74
2021/07/10 10:19:16;;;;;;;5.00;1.80;;;;;;;;;;5023438;28;20033;-74
2021/07/10 10:21:43;;;;;;;4.43;1.67;;;;;;;;;;5023035;28;20030;-74
2021/07/10 10:24:11;;;;;;;6.75;1.77;;;;;;;;;;5016734;28;20041;-74
2021/07/10 10:26:37;;;;;;;4.90;1.65;;;;;;;;;;5023091;28;20526;-74
2021/07/10 10:29:04;;;;;;;4.43;1.60;;;;;;;;;;5021227;28;20618;-74
2021/07/10 10:31:31;;;;;;;4.65;1.80;;;;;;;;;;5021836;28;20033;-74
2021/07/10 10:33:58;;;;;;;6.45;1.98;;;;;;;;;;5021879;28;20029;-74
2021/07/10 10:36:24;;;;;;;4.82;1.90;;;;;;;;;;5022530;28;20033;-75
2021/07/10 10:38:51;;;;;;;4.03;1.63;;;;;;;;;;5021395;28;20072;-74
2021/07/10 10:41:18;;;;;;;5.32;1.85;;;;;;;;;;5023132;28;20045;-75
2021/07/10 10:43:46;;;;;;;7.53;2.20;;;;;;;;;;5022698;28;20053;-74
2021/07/10 10:46:13;;;;;;;6.55;2.13;;;;;;;;;;5022123;28;20366;-74
2021/07/10 10:48:41;;;;;;;4.10;2.03;;;;;;;;;;5021180;28;20241;-74
2021/07/10 10:51:25;;;;;;;5.45;2.00;;;;;;;;;;5022500;28;20047;-73
2021/07/10 10:53:52;;;;;;;5.75;1.80;;;;;;;;;;5021648;28;20531;-76
2021/07/10 10:56:40;;;;;;;5.00;1.88;;;;;;;;;;5015233;28;20104;-74
2021/07/10 10:59:25;;;;;;;4.60;2.00;;;;;;;;;;5019631;28;20032;-75
2021/07/10 11:01:51;;;;;;;8.43;2.00;;;;;;;;;;5022710;28;20037;-75
2021/07/10 11:04:36;;;;;;;8.60;2.10;;;;;;;;;;5021966;28;20101;-74
2021/07/10 11:07:20;;;;;;;4.88;1.83;;;;;;;;;;5022347;28;20029;-75
2021/07/10 11:10:05;;;;;;;6.15;2.13;;;;;;;;;;5019073;28;20041;-74
2021/07/10 11:12:47;;;;;;;5.32;2.05;;;;;;;;;;5021412;28;20124;-75
2021/07/10 11:15:25;;;;;;;5.35;2.15;;;;;;;;;;5022098;28;20187;-75
2021/07/10 11:17:56;;;;;;;7.47;2.00;;;;;;;;;;5019602;28;20563;-75
2021/07/10 11:20:41;;;;;;;7.35;2.20;;;;;;;;;;5021349;28;20109;-73
2021/07/10 11:23:07;;;;;;;4.32;1.75;;;;;;;;;;5018635;28;20057;-74
2021/07/10 11:25:45;;;;;;;4.47;2.00;;;;;;;;;;5021529;28;20039;-79
2021/07/10 11:28:15;;;;;;;8.77;2.20;;;;;;;;;;5022232;28;20033;-74
2021/07/10 11:30:46;;;;;;;6.13;2.13;;;;;;;;;;5022993;28;20037;-74
2021/07/10 11:33:12;;;;;;;6.35;1.95;;;;;;;;;;5020915;28;20054;-73
2021/07/10 11:35:39;;;;;;;4.47;1.90;;;;;;;;;;5022196;28;20044;-73
2021/07/10 11:38:05;;;;;;;6.82;2.00;;;;;;;;;;5021977;28;20110;-73
2021/07/10 11:40:41;;;;;;;4.05;1.80;;;;;;;;;;5021895;28;20492;-73
2021/07/10 11:43:11;;;;;;;2.95;1.60;;;;;;;;;;5022195;28;20049;-74
2021/07/10 11:45:47;;;;;;;5.35;1.80;;;;;;;;;;5022422;28;20029;-73
2021/07/10 11:48:17;;;;;;;7.30;1.88;;;;;;;;;;5020477;28;20104;-73
2021/07/10 11:50:44;;;;;;;5.13;1.77;;;;;;;;;;5021887;28;20049;-74
2021/07/10 11:53:11;;;;;;;3.85;1.88;;;;;;;;;;5022092;28;20164;-74
2021/07/10 11:55:39;;;;;;;4.32;2.00;;;;;;;;;;5020864;28;20301;-74
2021/07/10 11:58:07;;;;;;;3.58;2.10;;;;;;;;;;5020391;28;20033;-74
2021/07/10 12:00:34;;;;;;;5.30;2.00;;;;;;;;;;5020304;28;20087;-74
2021/07/10 12:03:00;;;;;;;5.93;1.80;;;;;;;;;;5022105;28;20029;-74
2021/07/10 12:05:28;;;;;;;5.53;2.10;;;;;;;;;;5021345;28;20556;-74
2021/07/10 12:07:58;;;;;;;7.88;2.35;;;;;;;;;;5020417;28;20021;-74
2021/07/10 12:10:26;;;;;;;6.20;1.98;;;;;;;;;;5021469;28;20060;-73
2021/07/10 12:13:12;;;;;;;4.45;1.95;;;;;;;;;;5021911;28;20544;-74
2021/07/10 12:15:39;;;;;;;5.22;1.95;;;;;;;;;;5021620;28;20052;-74
2021/07/10 12:18:07;;;;;;;2.67;1.48;;;;;;;;;;5021998;28;20018;-74
2021/07/10 12:20:35;;;;;;;7.63;2.03;;;;;;;;;;5021802;28;20014;-72
2021/07/10 12:23:10;;;;;;;3.80;1.65;;;;;;;;;;5019898;28;20041;-73
2021/07/10 12:25:55;;;;;;;3.78;1.50;;;;;;;;;;5021418;28;20037;-72
2021/07/10 12:28:32;;;;;;;4.22;1.75;;;;;;;;;;5021652;28;20104;-73
2021/07/10 12:31:00;;;;;;;7.22;1.70;;;;;;;;;;5021587;28;20041;-72
2021/07/10 12:33:30;;;;;;;3.42;1.48;;;;;;;;;;5021306;28;20100;-72
2021/07/10 12:36:16;;;;;;;2.93;1.30;;;;;;;;;;5019153;28;20036;-72
2021/07/10 12:38:51;;;;;;;4.15;1.85;;;;;;;;;;5018118;28;20029;-72
2021/07/10 12:41:36;;;;;;;3.92;1.50;;;;;;;;;;5021474;28;20025;-72
2021/07/10 12:44:20;;;;;;;5.00;1.83;;;;;;;;;;5021043;28;20511;-73
2021/07/10 12:46:48;;;;;;;5.40;1.95;;;;;;;;;;5019304;28;20383;-72
2021/07/10 12:49:14;;;;;;;5.88;1.90;;;;;;;;;;5021254;28;20055;-72
2021/07/10 12:51:40;;;;;;;5.22;2.00;;;;;;;;;;5021677;28;20033;-79
2021/07/10 12:54:25;;;;;;;7.72;1.70;;;;;;;;;;5020457;28;20096;-72
2021/07/10 12:56:52;;;;;;;5.47;1.63;;;;;;;;;;5019587;28;20115;-75
2021/07/10 12:59:21;;;;;;;4.30;1.63;;;;;;;;;;5021182;28;20615;-75
2021/07/10 13:01:50;;;;;;;3.72;1.30;;;;;;;;;;5020780;28;20521;-76
2021/07/10 13:04:17;;;;;;;6.55;2.00;;;;;;;;;;5021155;28;20566;-76
2021/07/10 13:06:44;;;;;;;4.57;1.55;;;;;;;;;;5021075;28;20030;-77
2021/07/10 13:09:10;;;;;;;4.47;1.40;;;;;;;;;;5019162;28;20032;-75
2021/07/10 13:11:52;;;;;;;4.82;1.58;;;;;;;;;;5020606;28;20273;-76
2021/07/10 13:14:24;;;;;;;5.95;2.10;;;;;;;;;;5019416;28;20064;-77
2021/07/10 13:16:50;;;;;;;4.45;1.85;;;;;;;;;;5020735;28;20153;-76
2021/07/10 13:19:29;;;;;;;4.40;1.70;;;;;;;;;;5020824;28;20509;-76
2021/07/10 13:21:56;;;;;;;5.10;1.55;;;;;;;;;;5020426;28;20026;-76
2021/07/10 13:24:22;;;;;;;3.53;1.65;;;;;;;;;;5016197;28;20033;-77
2021/07/10 13:26:53;;;;;;;4.10;1.70;;;;;;;;;;5020803;28;20124;-76
2021/07/10 13:29:21;;;;;;;3.40;1.60;;;;;;;;;;5020874;28;20104;-76
2021/07/10 13:32:01;;;;;;;4.28;1.60;;;;;;;;;;5015983;28;20073;-75
2021/07/10 13:34:28;;;;;;;7.13;2.00;;;;;;;;;;5013577;28;20024;-77
2021/07/10 13:36:56;;;;;;;5.05;1.90;;;;;;;;;;5015788;28;20038;-76
2021/07/10 13:39:23;;;;;;;6.47;1.73;;;;;;;;;;5020630;28;20014;-76
2021/07/10 13:41:51;;;;;;;5.57;1.50;;;;;;;;;;5020288;28;20199;-77
2021/07/10 13:44:22;;;;;;;4.40;1.65;;;;;;;;;;5019182;28;20061;-76
2021/07/10 13:46:56;;;;;;;5.10;1.90;;;;;;;;;;5020773;28;20477;-76
2021/07/10 13:49:23;;;;;;;5.85;2.05;;;;;;;;;;5024023;28;20038;-76
2021/07/10 13:51:50;;;;;;;7.97;2.30;;;;;;;;;;5023767;28;20080;-77
2021/07/10 13:54:24;;;;;;;5.63;2.10;;;;;;;;;;5022597;28;20049;-75
2021/07/10 13:57:09;;;;;;;5.63;1.77;;;;;;;;;;5023785;28;20029;-77
2021/07/10 13:59:35;;;;;;;10.52;1.92;;;;;;;;;;5024207;28;20409;-76
2021/07/10 14:02:01;;;;;;;7.07;2.28;;;;;;;;;;5023963;28;20105;-75
2021/07/10 14:04:28;;;;;;;5.45;2.50;;;;;;;;;;5022695;28;20029;-76
2021/07/10 14:06:54;;;;;;;4.47;1.90;;;;;;;;;;5024216;28;20022;-77
2021/07/10 14:09:20;;;;;;;4.97;1.90;;;;;;;;;;5024021;28;20021;-76
2021/07/10 14:11:46;;;;;;;7.22;1.58;;;;;;;;;;5022399;28;20076;-76
2021/07/10 14:14:12;;;;;;;4.05;1.60;;;;;;;;;;5023785;28;20541;-76
2021/07/10 14:16:38;;;;;;;6.28;2.03;;;;;;;;;;5023055;28;20057;-76
2021/07/10 14:19:05;;;;;;;4.60;1.85;;;;;;;;;;5023218;28;20658;-77
2021/07/10 14:21:31;;;;;;;6.88;2.17;;;;;;;;;;5023552;28;20036;-76
2021/07/10 14:23:59;;;;;;;5.32;1.95;;;;;;;;;;5023480;28;20147;-76
2021/07/10 14:26:25;;;;;;;6.47;2.15;;;;;;;;;;5023460;28;20268;-77
2021/07/10 14:28:51;;;;;;;7.05;2.03;;;;;;;;;;5023805;28;20034;-76
2021/07/10 14:31:17;;;;;;;5.40;1.95;;;;;;;;;;5022210;28;20033;-76
2021/07/10 14:33:44;;;;;;;7.55;2.08;;;;;;;;;;5023528;28;20504;-76
2021/07/10 14:36:10;;;;;;;9.63;2.10;;;;;;;;;;5022179;28;20145;-76
2021/07/10 14:38:37;;;;;;;5.15;2.00;;;;;;;;;;5018628;28;20025;-76
2021/07/10 14:41:05;;;;;;;8.85;2.08;;;;;;;;;;5021759;28;20022;-76
2021/07/10 14:43:31;;;;;;;10.02;2.17;;;;;;;;;;5023237;28;20045;-76
2021/07/10 14:45:57;;;;;;;7.00;2.08;;;;;;;;;;5023044;28;20120;-76